Time;durP1;ratioP1;P1;durP2;ratioP2;P2;SDS_P1;SDS_P2;PMS_P1;PMS_P2;Temp;Humidity;BMP_temperature;BMP_pressure;BME280_temperature;BME280_humidity;BME280_pressure;Samples;Min_cycle;Max_cycle;Signal;HPM_P1;HPM_P2
2022/05/04 00:00:54;;;;;;;4.50;1.90;;;;;;;;;;4959184;28;20031;-79
2022/05/04 00:03:28;;;;;;;4.35;2.10;;;;;;;;;;4949671;28;20122;-78
2022/05/04 00:05:54;;;;;;;3.97;2.22;;;;;;;;;;4934377;29;20056;-79
2022/05/04 00:08:20;;;;;;;4.80;2.20;;;;;;;;;;4935314;29;20427;-78
2022/05/04 00:10:57;;;;;;;6.20;2.88;;;;;;;;;;4950576;28;20118;-79
2022/05/04 00:13:23;;;;;;;4.57;2.63;;;;;;;;;;4935148;29;20118;-79
2022/05/04 00:15:49;;;;;;;4.90;1.95;;;;;;;;;;4962720;28;20030;-77
2022/05/04 00:18:14;;;;;;;6.13;2.13;;;;;;;;;;4964725;28;20019;-79
2022/05/04 00:20:41;;;;;;;5.00;2.22;;;;;;;;;;4972927;28;20027;-79
2022/05/04 00:23:06;;;;;;;5.22;2.60;;;;;;;;;;4973721;28;20051;-79
2022/05/04 00:25:32;;;;;;;3.88;2.30;;;;;;;;;;4956379;28;20114;-78
2022/05/04 00:28:07;;;;;;;5.35;2.60;;;;;;;;;;4973690;28;20026;-80
2022/05/04 00:30:33;;;;;;;4.18;2.47;;;;;;;;;;4972452;28;20041;-78
2022/05/04 00:32:59;;;;;;;4.30;2.28;;;;;;;;;;4946349;28;20122;-78
2022/05/04 00:35:25;;;;;;;4.85;2.78;;;;;;;;;;4956618;28;20031;-79
2022/05/04 00:37:51;;;;;;;6.35;2.53;;;;;;;;;;4954213;28;20487;-78
2022/05/04 00:40:16;;;;;;;4.47;2.40;;;;;;;;;;4953955;28;20110;-79
2022/05/04 00:42:44;;;;;;;4.28;2.60;;;;;;;;;;4952699;28;20491;-78
2022/05/04 00:45:10;;;;;;;5.65;2.65;;;;;;;;;;4968767;28;20041;-78
2022/05/04 00:47:35;;;;;;;6.43;2.75;;;;;;;;;;4953952;28;20089;-79
2022/05/04 00:50:04;;;;;;;4.32;2.50;;;;;;;;;;4965054;28;20106;-77
2022/05/04 00:52:34;;;;;;;4.22;2.38;;;;;;;;;;4973445;28;20513;-77
2022/05/04 00:55:00;;;;;;;4.05;2.35;;;;;;;;;;4988058;28;20518;-78
2022/05/04 01:00:10;;;;;;;5.57;2.28;;;;;;;;;;4987952;28;20034;-79
2022/05/04 01:02:42;;;;;;;5.63;2.65;;;;;;;;;;4972856;28;20103;-77
2022/05/04 01:05:11;;;;;;;4.50;2.60;;;;;;;;;;4968683;28;20046;-79
2022/05/04 01:07:37;;;;;;;5.05;2.50;;;;;;;;;;4946796;28;20074;-79
2022/05/04 01:10:03;;;;;;;11.40;3.00;;;;;;;;;;4955895;28;20035;-78
2022/05/04 01:12:29;;;;;;;7.53;2.83;;;;;;;;;;4973021;28;20027;-77
2022/05/04 01:14:54;;;;;;;5.13;2.70;;;;;;;;;;4955843;28;20490;-78
2022/05/04 01:17:20;;;;;;;5.13;3.00;;;;;;;;;;4971754;28;20058;-78
2022/05/04 01:19:51;;;;;;;6.85;3.20;;;;;;;;;;4973093;28;20031;-77
2022/05/04 01:22:17;;;;;;;7.47;2.60;;;;;;;;;;4953699;28;20031;-78
2022/05/04 01:24:42;;;;;;;5.28;2.88;;;;;;;;;;4969021;28;20040;-78
2022/05/04 01:27:17;;;;;;;7.25;3.55;;;;;;;;;;4954184;28;20027;-77
2022/05/04 01:29:42;;;;;;;5.78;3.15;;;;;;;;;;4953067;29;20031;-76
2022/05/04 01:32:08;;;;;;;6.60;3.03;;;;;;;;;;4952735;29;20027;-76
2022/05/04 01:34:34;;;;;;;8.05;3.47;;;;;;;;;;4952469;29;20530;-76
2022/05/04 01:37:03;;;;;;;5.97;3.17;;;;;;;;;;4937020;29;20031;-77
2022/05/04 01:39:28;;;;;;;8.18;2.95;;;;;;;;;;4960919;28;20043;-78
2022/05/04 01:42:03;;;;;;;5.43;3.17;;;;;;;;;;4966657;28;20573;-79
2022/05/04 01:44:32;;;;;;;5.00;2.85;;;;;;;;;;4972794;28;20101;-80
2022/05/04 01:46:58;;;;;;;7.10;3.22;;;;;;;;;;4972037;28;20027;-78
2022/05/04 01:49:29;;;;;;;4.78;2.88;;;;;;;;;;4988299;28;20042;-79
2022/05/04 01:51:55;;;;;;;6.38;3.17;;;;;;;;;;4956330;28;20035;-77
2022/05/04 01:54:23;;;;;;;5.38;3.08;;;;;;;;;;4972543;28;20034;-78
2022/05/04 01:56:48;;;;;;;7.75;3.10;;;;;;;;;;4966267;28;20037;-79
2022/05/04 01:59:14;;;;;;;7.22;3.83;;;;;;;;;;4963393;28;20375;-78
2022/05/04 02:01:39;;;;;;;7.60;3.67;;;;;;;;;;4972627;28;20110;-78
2022/05/04 02:04:05;;;;;;;6.97;3.78;;;;;;;;;;4971468;28;20030;-77
2022/05/04 02:06:31;;;;;;;7.63;3.58;;;;;;;;;;4973336;28;20117;-78
2022/05/04 02:08:57;;;;;;;11.30;3.65;;;;;;;;;;4975351;28;20437;-78
2022/05/04 02:11:22;;;;;;;5.15;3.10;;;;;;;;;;4992367;28;20035;-77
2022/05/04 02:13:48;;;;;;;6.60;3.47;;;;;;;;;;4968989;28;20035;-78
2022/05/04 02:16:13;;;;;;;5.47;3.45;;;;;;;;;;4973103;28;20117;-77
2022/05/04 02:18:39;;;;;;;5.05;3.40;;;;;;;;;;4959563;28;20406;-78
2022/05/04 02:21:04;;;;;;;5.95;3.20;;;;;;;;;;4977065;28;20045;-79
2022/05/04 02:23:30;;;;;;;6.47;3.45;;;;;;;;;;4978031;28;20590;-76
2022/05/04 02:25:55;;;;;;;6.78;3.67;;;;;;;;;;4977536;28;20027;-76
2022/05/04 02:28:21;;;;;;;6.07;3.63;;;;;;;;;;4979955;28;20023;-79
2022/05/04 02:30:47;;;;;;;5.68;3.60;;;;;;;;;;4952939;28;20035;-78
2022/05/04 02:33:13;;;;;;;9.10;4.47;;;;;;;;;;4968178;28;20110;-78
2022/05/04 02:38:23;;;;;;;4.95;3.28;;;;;;;;;;4976013;28;20050;-76
2022/05/04 02:40:49;;;;;;;7.47;3.92;;;;;;;;;;4974581;28;20027;-79
2022/05/04 02:43:18;;;;;;;8.63;4.25;;;;;;;;;;4958598;28;20046;-77
2022/05/04 02:45:43;;;;;;;7.28;4.07;;;;;;;;;;4979475;28;20099;-78
2022/05/04 02:48:09;;;;;;;6.00;3.75;;;;;;;;;;4972937;28;20034;-77
2022/05/04 02:50:35;;;;;;;7.30;3.92;;;;;;;;;;4968641;28;20030;-76
2022/05/04 02:53:01;;;;;;;5.95;4.00;;;;;;;;;;4974917;28;20026;-77
2022/05/04 02:55:27;;;;;;;6.53;3.63;;;;;;;;;;4943041;28;20039;-76
2022/05/04 02:57:52;;;;;;;6.88;3.78;;;;;;;;;;4942320;28;20041;-78
2022/05/04 03:04:24;;;;;;;6.93;4.03;;;;;;;;;;4953122;28;20039;-76
2022/05/04 03:15:18;;;;;;;10.32;4.22;;;;;;;;;;4840533;29;20342;-79
2022/05/04 03:17:44;;;;;;;7.68;3.83;;;;;;;;;;4812066;29;20073;-79
2022/05/04 03:20:11;;;;;;;6.63;4.10;;;;;;;;;;4876010;29;20059;-77
2022/05/04 03:22:37;;;;;;;7.27;3.83;;;;;;;;;;4898603;29;20036;-79
2022/05/04 03:25:07;;;;;;;10.05;4.43;;;;;;;;;;4914973;29;20581;-79
2022/05/04 03:27:32;;;;;;;8.90;4.35;;;;;;;;;;4899280;29;20040;-77
2022/05/04 03:29:58;;;;;;;8.45;3.90;;;;;;;;;;4883497;29;20600;-77
2022/05/04 03:32:24;;;;;;;6.93;4.50;;;;;;;;;;4914854;29;20512;-76
2022/05/04 03:34:49;;;;;;;7.43;4.05;;;;;;;;;;4898597;29;20051;-76
2022/05/04 03:37:14;;;;;;;9.90;4.18;;;;;;;;;;4900142;29;20082;-80
2022/05/04 03:39:40;;;;;;;7.00;3.90;;;;;;;;;;4971343;28;20039;-80
2022/05/04 03:42:05;;;;;;;7.70;4.55;;;;;;;;;;4973057;28;20477;-78
2022/05/04 03:44:40;;;;;;;8.38;4.03;;;;;;;;;;4972800;28;20031;-77
2022/05/04 03:47:06;;;;;;;11.35;4.80;;;;;;;;;;4974271;28;20027;-77
2022/05/04 03:49:31;;;;;;;8.02;4.78;;;;;;;;;;4972885;28;20038;-78
2022/05/04 03:51:58;;;;;;;6.25;4.15;;;;;;;;;;4961422;28;20576;-77
2022/05/04 03:54:25;;;;;;;9.45;4.68;;;;;;;;;;4948528;28;20035;-77
2022/05/04 03:56:50;;;;;;;6.82;4.40;;;;;;;;;;4972774;28;20097;-78
2022/05/04 03:59:15;;;;;;;16.00;6.65;;;;;;;;;;4973679;28;20479;-76
2022/05/04 04:01:41;;;;;;;9.98;5.68;;;;;;;;;;4956992;28;20027;-79
2022/05/04 04:04:07;;;;;;;12.35;5.10;;;;;;;;;;4972532;28;20062;-78
2022/05/04 04:06:32;;;;;;;9.43;4.63;;;;;;;;;;4969159;28;20491;-78
2022/05/04 04:08:58;;;;;;;9.85;5.15;;;;;;;;;;4964388;28;20546;-79
2022/05/04 04:11:26;;;;;;;7.22;4.47;;;;;;;;;;4972662;28;20031;-77
2022/05/04 04:13:52;;;;;;;9.38;4.75;;;;;;;;;;4973595;28;20501;-78
2022/05/04 04:16:17;;;;;;;9.50;4.45;;;;;;;;;;4973826;28;20106;-78
2022/05/04 04:18:42;;;;;;;12.55;5.13;;;;;;;;;;4972409;28;20047;-77
2022/05/04 04:23:52;;;;;;;10.10;4.80;;;;;;;;;;4963538;28;20089;-78
2022/05/04 04:26:18;;;;;;;12.20;5.38;;;;;;;;;;4957255;28;20499;-79
2022/05/04 04:28:43;;;;;;;7.32;4.55;;;;;;;;;;4952882;28;20082;-77
2022/05/04 04:31:12;;;;;;;8.45;4.55;;;;;;;;;;4954012;28;20030;-78
2022/05/04 04:33:37;;;;;;;8.60;4.78;;;;;;;;;;4968807;28;20027;-75
2022/05/04 04:36:03;;;;;;;8.23;4.80;;;;;;;;;;4953980;28;20034;-79
2022/05/04 04:38:29;;;;;;;5.38;4.03;;;;;;;;;;4968436;28;20072;-77
2022/05/04 04:40:55;;;;;;;8.02;4.45;;;;;;;;;;4956467;28;20025;-77
2022/05/04 04:43:20;;;;;;;10.82;5.22;;;;;;;;;;4955209;28;20479;-79
2022/05/04 04:45:52;;;;;;;11.48;5.25;;;;;;;;;;4968725;28;20566;-76
2022/05/04 04:48:24;;;;;;;9.93;5.35;;;;;;;;;;4953641;28;20039;-78
2022/05/04 04:50:49;;;;;;;13.68;5.72;;;;;;;;;;4953582;28;20054;-76
2022/05/04 04:53:23;;;;;;;17.42;5.80;;;;;;;;;;4951985;29;20066;-77
2022/05/04 04:55:50;;;;;;;11.75;5.53;;;;;;;;;;4952331;28;20106;-79
2022/05/04 04:58:15;;;;;;;7.45;5.05;;;;;;;;;;4960538;28;20328;-78
2022/05/04 05:00:41;;;;;;;11.55;4.95;;;;;;;;;;4955058;28;20525;-79
2022/05/04 05:03:06;;;;;;;10.13;5.03;;;;;;;;;;4973416;28;20034;-77
2022/05/04 05:05:32;;;;;;;10.55;5.82;;;;;;;;;;4971770;28;20109;-77
2022/05/04 05:08:07;;;;;;;7.95;4.93;;;;;;;;;;4972797;28;20106;-78
2022/05/04 05:10:32;;;;;;;9.05;4.70;;;;;;;;;;4972048;28;20109;-78
2022/05/04 05:13:10;;;;;;;11.05;4.85;;;;;;;;;;4955736;28;20498;-80
2022/05/04 05:18:20;;;;;;;9.73;4.78;;;;;;;;;;4987489;28;20031;-79
2022/05/04 05:20:46;;;;;;;10.73;5.30;;;;;;;;;;4972524;28;20371;-78
2022/05/04 05:23:12;;;;;;;10.00;4.82;;;;;;;;;;4986965;28;20105;-77
2022/05/04 05:25:49;;;;;;;15.43;5.25;;;;;;;;;;4971931;28;20034;-78
2022/05/04 05:28:15;;;;;;;9.80;4.75;;;;;;;;;;4972454;28;20026;-78
2022/05/04 05:30:42;;;;;;;12.13;5.45;;;;;;;;;;4987818;28;20054;-77
2022/05/04 05:33:08;;;;;;;8.65;4.88;;;;;;;;;;4957599;28;20038;-77
2022/05/04 05:35:36;;;;;;;;;;;;;;;;;;4948721;28;20035;-78
2022/05/04 05:38:01;;;;;;;16.35;5.15;;;;;;;;;;4948957;28;19918;-78
2022/05/04 05:40:27;;;;;;;9.23;5.05;;;;;;;;;;4934090;29;20039;-78
2022/05/04 05:43:03;;;;;;;10.02;5.25;;;;;;;;;;4920808;29;20028;-77
2022/05/04 05:45:28;;;;;;;9.32;4.97;;;;;;;;;;4937949;29;20448;-77
2022/05/04 05:47:54;;;;;;;11.23;6.40;;;;;;;;;;4936691;29;20440;-77
2022/05/04 05:50:19;;;;;;;12.82;6.43;;;;;;;;;;4964728;28;20038;-77
2022/05/04 05:52:45;;;;;;;8.00;4.75;;;;;;;;;;4958189;28;20031;-77
2022/05/04 05:55:20;;;;;;;15.32;5.50;;;;;;;;;;4990857;28;20165;-78
2022/05/04 05:57:46;;;;;;;12.13;5.47;;;;;;;;;;4975934;28;20050;-77
2022/05/04 06:00:13;;;;;;;10.63;5.60;;;;;;;;;;4975503;28;20483;-77
2022/05/04 06:02:38;;;;;;;12.80;5.70;;;;;;;;;;4975744;28;20113;-76
2022/05/04 06:05:04;;;;;;;12.68;5.25;;;;;;;;;;4963691;28;20067;-78
2022/05/04 06:07:32;;;;;;;14.77;5.70;;;;;;;;;;4974098;28;20483;-78
2022/05/04 06:09:58;;;;;;;10.32;5.28;;;;;;;;;;4975727;28;20045;-77
2022/05/04 06:12:23;;;;;;;10.80;5.30;;;;;;;;;;4975744;28;20038;-77
2022/05/04 06:14:48;;;;;;;10.32;4.82;;;;;;;;;;4979694;28;20046;-78
2022/05/04 06:17:17;;;;;;;7.78;4.63;;;;;;;;;;4981897;28;20071;-78
2022/05/04 06:19:49;;;;;;;10.35;4.70;;;;;;;;;;4964677;28;20030;-78
2022/05/04 06:22:14;;;;;;;8.02;4.53;;;;;;;;;;4968071;28;20051;-78
2022/05/04 06:24:40;;;;;;;9.15;4.20;;;;;;;;;;4977966;28;20029;-77
2022/05/04 06:27:08;;;;;;;13.57;4.75;;;;;;;;;;4981060;28;20054;-78
2022/05/04 06:35:11;;;;;;;8.43;4.60;;;;;;;;;;4982545;28;20027;-77
2022/05/04 06:37:37;;;;;;;8.15;4.65;;;;;;;;;;4977471;28;20082;-77
2022/05/04 06:40:03;;;;;;;9.88;4.82;;;;;;;;;;4982139;28;20026;-77
2022/05/04 06:42:29;;;;;;;12.43;4.82;;;;;;;;;;4987945;28;20058;-76
2022/05/04 06:44:54;;;;;;;10.80;5.68;;;;;;;;;;4980815;28;20082;-76
2022/05/04 06:47:20;;;;;;;8.68;4.85;;;;;;;;;;4977548;28;20038;-74
2022/05/04 06:49:46;;;;;;;10.93;4.85;;;;;;;;;;4945463;28;20068;-74
2022/05/04 06:52:12;;;;;;;10.82;5.20;;;;;;;;;;4978151;28;20166;-75
2022/05/04 06:54:40;;;;;;;17.00;5.13;;;;;;;;;;4989771;28;20058;-76
2022/05/04 06:57:06;;;;;;;12.30;4.65;;;;;;;;;;4968740;28;20055;-75
2022/05/04 06:59:31;;;;;;;9.50;4.78;;;;;;;;;;4961239;28;20027;-76
2022/05/04 07:01:57;;;;;;;10.23;5.00;;;;;;;;;;4970746;28;20038;-75
2022/05/04 07:04:23;;;;;;;10.25;5.10;;;;;;;;;;4938256;29;20038;-77
2022/05/04 07:06:48;;;;;;;7.85;4.80;;;;;;;;;;4954257;29;20085;-76
2022/05/04 07:09:14;;;;;;;10.95;4.72;;;;;;;;;;4955334;28;20077;-76
2022/05/04 07:11:39;;;;;;;7.68;4.75;;;;;;;;;;4955352;28;20038;-75
2022/05/04 07:14:05;;;;;;;10.65;4.65;;;;;;;;;;4959190;28;20035;-76
2022/05/04 07:16:30;;;;;;;12.70;5.00;;;;;;;;;;4971729;28;20030;-76
2022/05/04 07:18:59;;;;;;;8.30;4.57;;;;;;;;;;4974210;28;20520;-75
2022/05/04 07:21:25;;;;;;;12.57;5.35;;;;;;;;;;4974455;28;20254;-76
2022/05/04 07:23:50;;;;;;;16.02;6.45;;;;;;;;;;4972717;28;20490;-76
2022/05/04 07:26:15;;;;;;;11.05;5.22;;;;;;;;;;4974173;28;20026;-75
2022/05/04 07:28:41;;;;;;;11.73;5.32;;;;;;;;;;4983129;28;20505;-75
2022/05/04 07:31:06;;;;;;;8.85;5.10;;;;;;;;;;4965905;28;20497;-75
2022/05/04 07:33:32;;;;;;;16.75;6.15;;;;;;;;;;4956368;28;20039;-75
2022/05/04 07:35:58;;;;;;;12.38;5.90;;;;;;;;;;4956940;28;20038;-76
2022/05/04 07:38:23;;;;;;;11.02;5.03;;;;;;;;;;4989142;28;20039;-75
2022/05/04 07:43:33;;;;;;;9.80;5.75;;;;;;;;;;4973668;28;20037;-76
2022/05/04 07:45:59;;;;;;;11.02;5.15;;;;;;;;;;4964941;28;20098;-76
2022/05/04 07:48:27;;;;;;;9.85;5.82;;;;;;;;;;4961254;28;20038;-76
2022/05/04 07:50:52;;;;;;;8.80;5.13;;;;;;;;;;4974001;28;20398;-75
2022/05/04 07:53:17;;;;;;;12.13;5.85;;;;;;;;;;4973303;28;20398;-75
2022/05/04 07:55:47;;;;;;;13.90;5.35;;;;;;;;;;4973819;28;20046;-75
2022/05/04 07:58:13;;;;;;;11.10;5.70;;;;;;;;;;4972566;28;20113;-76
2022/05/04 08:06:12;;;;;;;13.52;6.25;;;;;;;;;;4964051;28;20023;-78
2022/05/04 08:08:38;;;;;;;15.73;6.85;;;;;;;;;;4973270;28;20491;-75
2022/05/04 08:11:03;;;;;;;20.13;7.18;;;;;;;;;;4956193;28;20081;-76
2022/05/04 08:13:29;;;;;;;24.15;8.77;;;;;;;;;;4971935;28;20434;-76
2022/05/04 08:15:54;;;;;;;20.13;6.70;;;;;;;;;;4972563;28;20517;-75
2022/05/04 08:18:20;;;;;;;16.80;7.80;;;;;;;;;;4973725;28;20075;-75
2022/05/04 08:20:46;;;;;;;23.40;7.90;;;;;;;;;;4964455;28;20027;-74
2022/05/04 08:23:12;;;;;;;10.52;6.40;;;;;;;;;;4980117;28;20442;-76
2022/05/04 08:25:38;;;;;;;12.52;7.43;;;;;;;;;;4956315;28;20138;-75
2022/05/04 08:28:03;;;;;;;14.68;7.18;;;;;;;;;;4972136;28;20106;-76
2022/05/04 08:30:29;;;;;;;17.85;6.72;;;;;;;;;;4956188;28;20494;-78
2022/05/04 08:32:55;;;;;;;15.25;6.53;;;;;;;;;;4973458;28;20030;-76
2022/05/04 08:35:20;;;;;;;12.98;6.32;;;;;;;;;;4960874;28;20038;-83
2022/05/04 08:37:46;;;;;;;14.68;6.32;;;;;;;;;;4981080;28;20026;-81
2022/05/04 08:40:12;;;;;;;11.15;6.32;;;;;;;;;;4971078;28;20027;-78
2022/05/04 08:42:41;;;;;;;12.80;6.63;;;;;;;;;;4995699;28;20490;-79
2022/05/04 08:45:09;;;;;;;20.58;6.65;;;;;;;;;;4987518;28;20027;-80
2022/05/04 08:47:36;;;;;;;15.93;5.97;;;;;;;;;;4990524;28;20090;-81
2022/05/04 08:50:02;;;;;;;9.93;5.60;;;;;;;;;;4983908;28;20100;-81
2022/05/04 08:52:27;;;;;;;11.40;5.78;;;;;;;;;;4952873;28;20046;-80
2022/05/04 08:54:54;;;;;;;11.30;6.00;;;;;;;;;;4984683;28;20114;-84
2022/05/04 08:57:20;;;;;;;8.68;5.38;;;;;;;;;;4974073;28;20038;-86
2022/05/04 08:59:46;;;;;;;9.43;5.80;;;;;;;;;;4940427;29;20114;-84
2022/05/04 09:02:12;;;;;;;10.70;5.93;;;;;;;;;;4961843;28;20490;-83
2022/05/04 09:04:41;;;;;;;12.30;5.82;;;;;;;;;;4979826;28;20066;-82
2022/05/04 09:07:19;;;;;;;9.95;5.88;;;;;;;;;;4966537;28;20315;-80
2022/05/04 09:09:45;;;;;;;11.90;6.88;;;;;;;;;;4946373;29;20090;-80
2022/05/04 09:12:14;;;;;;;11.32;5.57;;;;;;;;;;4944903;29;20468;-81
2022/05/04 09:14:41;;;;;;;13.07;5.65;;;;;;;;;;4939995;29;20416;-81
2022/05/04 09:17:10;;;;;;;11.07;6.38;;;;;;;;;;4939285;29;20055;-81
2022/05/04 09:19:36;;;;;;;10.82;5.53;;;;;;;;;;4951607;28;20070;-81
2022/05/04 09:22:01;;;;;;;11.18;5.22;;;;;;;;;;4966231;28;20058;-79
2022/05/04 09:24:28;;;;;;;11.90;6.72;;;;;;;;;;4967467;28;20031;-82
2022/05/04 09:26:56;;;;;;;;;;;;;;;;;;4955592;29;20118;-81
2022/05/04 09:29:32;;;;;;;10.73;5.85;;;;;;;;;;4941260;29;20306;-82
2022/05/04 09:31:57;;;;;;;14.35;5.75;;;;;;;;;;4941451;29;20036;-81
2022/05/04 09:34:32;;;;;;;13.40;6.10;;;;;;;;;;4937601;29;20523;-80
2022/05/04 09:45:32;;;;;;;13.38;6.43;;;;;;;;;;4939662;29;20028;-81
2022/05/04 09:47:58;;;;;;;9.02;5.45;;;;;;;;;;4949194;28;20033;-81
2022/05/04 09:50:26;;;;;;;11.93;5.30;;;;;;;;;;4984083;28;20383;-80
2022/05/04 09:52:53;;;;;;;17.17;5.82;;;;;;;;;;4975741;28;20031;-81
2022/05/04 09:55:27;;;;;;;14.27;6.57;;;;;;;;;;4976141;28;20046;-80
2022/05/04 09:57:54;;;;;;;11.43;6.70;;;;;;;;;;4975835;28;20030;-81
2022/05/04 10:00:21;;;;;;;13.25;6.82;;;;;;;;;;4995366;22;20046;-87
2022/05/04 10:02:51;;;;;;;10.57;5.88;;;;;;;;;;4996278;28;20073;-87
2022/05/04 10:05:17;;;;;;;12.48;6.10;;;;;;;;;;4991122;28;20032;-85
2022/05/04 10:07:44;;;;;;;13.07;7.05;;;;;;;;;;4991270;28;20473;-85
2022/05/04 10:10:10;;;;;;;14.52;6.50;;;;;;;;;;5015521;28;20536;-87
2022/05/04 10:12:38;;;;;;;12.63;6.45;;;;;;;;;;5019201;28;20149;-85
2022/05/04 10:15:07;;;;;;;10.17;5.60;;;;;;;;;;5034411;28;20037;-85
2022/05/04 10:17:34;;;;;;;13.38;5.32;;;;;;;;;;4999952;28;20378;-84
2022/05/04 10:20:19;;;;;;;12.00;6.13;;;;;;;;;;4999292;28;20519;-86
2022/05/04 10:22:57;;;;;;;11.35;5.47;;;;;;;;;;5002466;28;20027;-86
2022/05/04 10:25:24;;;;;;;11.75;5.55;;;;;;;;;;4994776;28;20482;-88
2022/05/04 10:27:50;;;;;;;14.65;6.22;;;;;;;;;;4996957;28;20045;-86
2022/05/04 10:30:30;;;;;;;12.60;6.45;;;;;;;;;;5015076;28;20022;-87
2022/05/04 10:33:00;;;;;;;10.45;5.93;;;;;;;;;;4997220;28;20030;-86
2022/05/04 10:35:40;;;;;;;10.55;5.32;;;;;;;;;;4998166;28;20113;-86
2022/05/04 10:38:15;;;;;;;11.07;5.40;;;;;;;;;;4995485;28;20481;-87
2022/05/04 10:40:55;;;;;;;12.88;5.00;;;;;;;;;;4988688;28;20120;-87
2022/05/04 10:43:36;;;;;;;9.68;5.13;;;;;;;;;;4997363;28;20069;-85
2022/05/04 10:46:05;;;;;;;12.10;4.95;;;;;;;;;;4981698;28;20038;-85
2022/05/04 10:48:30;;;;;;;16.67;10.30;;;;;;;;;;4981285;28;20030;-86
2022/05/04 10:50:58;;;;;;;11.32;5.90;;;;;;;;;;5013401;28;20029;-87
2022/05/04 10:53:23;;;;;;;11.45;5.38;;;;;;;;;;5013378;28;20030;-84
2022/05/04 10:56:01;;;;;;;14.77;4.78;;;;;;;;;;5004095;28;20444;-85
2022/05/04 10:58:33;;;;;;;10.52;4.40;;;;;;;;;;5004775;28;20069;-86
2022/05/04 11:01:12;;;;;;;9.55;4.95;;;;;;;;;;4980871;28;20049;-85
2022/05/04 11:03:48;;;;;;;13.43;5.05;;;;;;;;;;5012514;28;20022;-85
2022/05/04 11:06:24;;;;;;;9.73;4.90;;;;;;;;;;5014874;28;20030;-86
2022/05/04 11:08:50;;;;;;;8.75;4.05;;;;;;;;;;5013161;28;20104;-85
2022/05/04 11:11:15;;;;;;;9.82;4.13;;;;;;;;;;4998313;28;20037;-85
2022/05/04 11:13:44;;;;;;;8.50;3.97;;;;;;;;;;5005596;28;20026;-86
2022/05/04 11:16:10;;;;;;;8.60;4.30;;;;;;;;;;4977546;28;20125;-86
2022/05/04 11:18:36;;;;;;;12.30;5.07;;;;;;;;;;4997207;28;20045;-86
2022/05/04 11:21:05;;;;;;;9.35;4.28;;;;;;;;;;5013977;28;20092;-83
2022/05/04 11:23:31;;;;;;;9.40;3.92;;;;;;;;;;5020016;28;20026;-83
2022/05/04 11:25:56;;;;;;;7.80;3.90;;;;;;;;;;5005736;28;20034;-82
2022/05/04 11:28:23;;;;;;;9.43;4.40;;;;;;;;;;4996015;28;20032;-82
2022/05/04 11:30:48;;;;;;;9.38;3.60;;;;;;;;;;5012643;28;20026;-82
2022/05/04 11:33:14;;;;;;;7.28;3.47;;;;;;;;;;5012422;28;20026;-83
2022/05/04 11:35:43;;;;;;;6.43;3.05;;;;;;;;;;5012697;28;20026;-83
2022/05/04 11:38:19;;;;;;;5.25;2.95;;;;;;;;;;5012631;28;20041;-83
2022/05/04 11:40:47;;;;;;;6.50;3.05;;;;;;;;;;4994844;28;20034;-83
2022/05/04 11:43:25;;;;;;;6.25;3.20;;;;;;;;;;4979329;28;20113;-83
2022/05/04 11:45:51;;;;;;;7.75;3.28;;;;;;;;;;4982906;28;20026;-82
2022/05/04 11:48:20;;;;;;;7.45;3.42;;;;;;;;;;4976542;28;20049;-85
2022/05/04 11:50:45;;;;;;;5.47;2.92;;;;;;;;;;4977823;28;20030;-83
2022/05/04 11:53:11;;;;;;;6.38;2.78;;;;;;;;;;5005338;28;20078;-84
2022/05/04 11:55:37;;;;;;;6.38;2.58;;;;;;;;;;4983352;28;20034;-83
2022/05/04 11:58:07;;;;;;;5.35;2.88;;;;;;;;;;4968848;28;20040;-84
2022/05/04 12:00:36;;;;;;;6.50;2.72;;;;;;;;;;4978645;28;20061;-83
2022/05/04 12:03:02;;;;;;;6.32;2.92;;;;;;;;;;4976248;28;20037;-83
2022/05/04 12:05:28;;;;;;;6.03;2.60;;;;;;;;;;4991574;28;20030;-82
2022/05/04 12:07:53;;;;;;;5.78;2.45;;;;;;;;;;4966338;28;20497;-80
2022/05/04 12:10:19;;;;;;;5.40;2.60;;;;;;;;;;4992662;28;20035;-79
2022/05/04 12:12:45;;;;;;;6.78;3.40;;;;;;;;;;4993411;28;20073;-81
2022/05/04 12:15:11;;;;;;;4.05;2.00;;;;;;;;;;4992661;28;20129;-79
2022/05/04 12:17:36;;;;;;;4.20;2.10;;;;;;;;;;4993128;28;20109;-79
2022/05/04 12:20:03;;;;;;;5.50;2.78;;;;;;;;;;4993357;28;20041;-80
2022/05/04 12:22:29;;;;;;;4.22;2.40;;;;;;;;;;4984194;28;20081;-82
2022/05/04 12:24:54;;;;;;;5.50;2.60;;;;;;;;;;4997935;28;20031;-82
2022/05/04 12:27:20;;;;;;;5.15;2.70;;;;;;;;;;4972959;28;20294;-83
2022/05/04 12:35:14;;;;;;;6.05;2.42;;;;;;;;;;5003283;28;20058;-84
2022/05/04 12:37:42;;;;;;;;;;;;;;;;;;4976482;28;20030;-82
2022/05/04 12:40:08;;;;;;;6.07;2.42;;;;;;;;;;4982223;28;19920;-85
2022/05/04 12:42:34;;;;;;;6.07;2.60;;;;;;;;;;4977036;28;20474;-83
2022/05/04 12:45:01;;;;;;;7.38;3.38;;;;;;;;;;4984269;28;20393;-81
2022/05/04 12:47:28;;;;;;;7.20;2.67;;;;;;;;;;4973240;28;20022;-80
2022/05/04 12:49:54;;;;;;;4.57;2.78;;;;;;;;;;4941996;28;20030;-82
2022/05/04 12:52:20;;;;;;;5.50;2.42;;;;;;;;;;4984740;28;20049;-84
2022/05/04 12:54:45;;;;;;;4.88;2.85;;;;;;;;;;4965279;28;20487;-79
2022/05/04 12:57:11;;;;;;;5.05;2.83;;;;;;;;;;5007820;28;20462;-79
2022/05/04 12:59:38;;;;;;;6.53;3.00;;;;;;;;;;5016467;28;20476;-79
2022/05/04 13:02:05;;;;;;;5.00;2.38;;;;;;;;;;4977492;28;20050;-80
2022/05/04 13:04:30;;;;;;;5.20;3.10;;;;;;;;;;4994395;28;20030;-80
2022/05/04 13:06:56;;;;;;;5.28;2.85;;;;;;;;;;4994712;28;20030;-79
2022/05/04 13:09:21;;;;;;;12.30;4.40;;;;;;;;;;4994653;28;20379;-79
2022/05/04 13:11:47;;;;;;;5.68;2.88;;;;;;;;;;5001733;28;20022;-85
2022/05/04 13:14:13;;;;;;;6.63;3.95;;;;;;;;;;5025549;28;20025;-82
2022/05/04 13:16:40;;;;;;;9.50;3.22;;;;;;;;;;4996494;28;20034;-80
2022/05/04 13:19:06;;;;;;;6.10;3.25;;;;;;;;;;5014134;28;20036;-80
2022/05/04 13:21:31;;;;;;;9.30;2.63;;;;;;;;;;4995959;28;20034;-82
2022/05/04 13:23:57;;;;;;;6.25;2.92;;;;;;;;;;5012950;28;20030;-81
2022/05/04 13:26:22;;;;;;;5.18;3.30;;;;;;;;;;5013142;28;20323;-80
2022/05/04 13:28:51;;;;;;;8.70;4.20;;;;;;;;;;5002339;28;20026;-81
2022/05/04 13:31:17;;;;;;;12.25;5.85;;;;;;;;;;5008473;28;20064;-80
2022/05/04 13:33:44;;;;;;;12.13;3.40;;;;;;;;;;5012776;28;20034;-80
2022/05/04 13:36:10;;;;;;;5.68;2.90;;;;;;;;;;5014537;28;20476;-81
2022/05/04 13:38:36;;;;;;;8.10;3.28;;;;;;;;;;5011261;28;20488;-80
2022/05/04 13:41:03;;;;;;;5.80;3.53;;;;;;;;;;5010709;28;20034;-79
2022/05/04 13:43:28;;;;;;;5.00;3.37;;;;;;;;;;5007118;28;20648;-79
2022/05/04 13:45:54;;;;;;;6.28;3.20;;;;;;;;;;5002230;28;20101;-80
2022/05/04 13:48:19;;;;;;;9.20;3.78;;;;;;;;;;5010103;28;20079;-79
2022/05/04 13:53:29;;;;;;;4.43;3.10;;;;;;;;;;5014227;28;20102;-81
2022/05/04 13:55:55;;;;;;;11.77;3.67;;;;;;;;;;5010886;28;20450;-81
2022/05/04 13:58:24;;;;;;;8.05;3.25;;;;;;;;;;4999849;28;20501;-81
2022/05/04 14:00:50;;;;;;;6.97;3.70;;;;;;;;;;4991378;28;20126;-82
2022/05/04 14:03:18;;;;;;;11.07;3.83;;;;;;;;;;4995108;28;20046;-84
2022/05/04 14:05:47;;;;;;;5.10;3.42;;;;;;;;;;4989514;28;20034;-83
2022/05/04 14:08:13;;;;;;;6.38;3.40;;;;;;;;;;5003030;28;20027;-81
2022/05/04 14:10:46;;;;;;;9.40;3.38;;;;;;;;;;4961588;28;20041;-80
2022/05/04 14:13:12;;;;;;;6.38;3.00;;;;;;;;;;4983660;28;20030;-80
2022/05/04 14:15:38;;;;;;;6.13;3.10;;;;;;;;;;5007067;28;20043;-81
2022/05/04 14:18:05;;;;;;;6.03;3.40;;;;;;;;;;4990781;28;20034;-81
2022/05/04 14:20:31;;;;;;;6.47;3.17;;;;;;;;;;4999959;28;20037;-81
2022/05/04 14:22:57;;;;;;;6.20;3.00;;;;;;;;;;5002825;28;20083;-80
2022/05/04 14:25:22;;;;;;;8.48;4.20;;;;;;;;;;4986992;28;20110;-80
2022/05/04 14:27:48;;;;;;;8.73;3.40;;;;;;;;;;5004116;28;20022;-81
2022/05/04 14:30:15;;;;;;;8.82;3.38;;;;;;;;;;4984229;28;20086;-81
2022/05/04 14:32:41;;;;;;;5.22;3.58;;;;;;;;;;4985644;28;20045;-81
2022/05/04 14:35:07;;;;;;;8.10;3.30;;;;;;;;;;5003188;28;20353;-81
2022/05/04 14:37:33;;;;;;;11.90;3.60;;;;;;;;;;4996693;28;20060;-80
2022/05/04 14:39:59;;;;;;;7.30;3.25;;;;;;;;;;5004186;28;20042;-81
2022/05/04 14:42:25;;;;;;;9.07;3.92;;;;;;;;;;5007891;28;20049;-81
2022/05/04 14:44:50;;;;;;;7.75;3.20;;;;;;;;;;5009894;28;20077;-80
2022/05/04 14:47:16;;;;;;;10.43;3.67;;;;;;;;;;5014587;28;20052;-80
2022/05/04 14:49:44;;;;;;;7.85;3.92;;;;;;;;;;5009902;28;20034;-81
2022/05/04 14:52:09;;;;;;;6.65;3.78;;;;;;;;;;4995871;28;20064;-81
2022/05/04 14:54:35;;;;;;;6.47;5.00;;;;;;;;;;5005113;28;20386;-80
2022/05/04 14:57:00;;;;;;;7.35;3.42;;;;;;;;;;5005850;28;20037;-81
2022/05/04 14:59:27;;;;;;;9.75;3.72;;;;;;;;;;5023277;28;20061;-82
2022/05/04 15:01:53;;;;;;;9.55;3.60;;;;;;;;;;5017976;28;20044;-83
2022/05/04 15:07:03;;;;;;;7.65;3.25;;;;;;;;;;5007234;28;20025;-82
2022/05/04 15:09:29;;;;;;;6.05;3.20;;;;;;;;;;5001752;28;20037;-81
2022/05/04 15:11:57;;;;;;;5.93;3.40;;;;;;;;;;5020880;28;20026;-81
2022/05/04 15:14:22;;;;;;;5.32;3.50;;;;;;;;;;5008581;28;20041;-81
2022/05/04 15:16:48;;;;;;;6.18;3.60;;;;;;;;;;5028428;28;20026;-82
2022/05/04 15:19:13;;;;;;;6.05;3.35;;;;;;;;;;5017838;28;20425;-83
2022/05/04 15:21:39;;;;;;;6.88;3.65;;;;;;;;;;5009369;28;20104;-82
2022/05/04 15:24:04;;;;;;;9.30;3.78;;;;;;;;;;5009845;28;20037;-85
2022/05/04 15:26:32;;;;;;;5.88;3.85;;;;;;;;;;4992928;28;20079;-84
2022/05/04 15:28:57;;;;;;;5.70;3.65;;;;;;;;;;4989709;28;20030;-83
2022/05/04 15:31:26;;;;;;;9.73;3.70;;;;;;;;;;4984430;28;20082;-82
2022/05/04 15:33:55;;;;;;;8.85;4.43;;;;;;;;;;4985136;28;20056;-82